Time;durP1;ratioP1;P1;durP2;ratioP2;P2;SDS_P1;SDS_P2;PMS_P1;PMS_P2;Temp;Humidity;BMP_temperature;BMP_pressure;BME280_temperature;BME280_humidity;BME280_pressure;Samples;Min_cycle;Max_cycle;Signal;HPM_P1;HPM_P2
2023/11/19 00:00:45;;;;;;;34.40;23.20;;;;;;;0.02;100.00;97123.15;108707;1272;22536;-78
2023/11/19 00:03:37;;;;;;;31.70;21.40;;;;;;;0.01;100.00;97117.70;108713;1272;26445;-78
2023/11/19 00:06:11;;;;;;;31.50;21.50;;;;;;;-0.02;100.00;97115.05;108707;1267;25284;-78
2023/11/19 00:08:43;;;;;;;34.20;23.10;;;;;;;0.00;100.00;97109.95;108702;1266;22537;-78
2023/11/19 00:11:16;;;;;;;35.50;22.20;;;;;;;0.00;100.00;97099.73;108742;1272;24423;-78
2023/11/19 00:13:48;;;;;;;31.10;22.40;;;;;;;-0.04;100.00;97098.63;108750;1272;22559;-78
2023/11/19 00:16:19;;;;;;;34.60;22.40;;;;;;;-0.07;100.00;97101.67;108745;1272;22517;-78
2023/11/19 00:18:51;;;;;;;37.90;24.10;;;;;;;-0.09;100.00;97094.85;108759;1266;22538;-78
2023/11/19 00:21:22;;;;;;;35.00;23.80;;;;;;;-0.08;100.00;97090.33;108699;1272;22607;-78
2023/11/19 00:23:58;;;;;;;33.80;23.40;;;;;;;-0.06;100.00;97088.80;108710;1272;22525;-78
2023/11/19 00:26:30;;;;;;;34.50;23.60;;;;;;;-0.03;100.00;97090.12;108703;1272;22543;-78
2023/11/19 00:29:06;;;;;;;34.50;22.80;;;;;;;-0.01;100.00;97085.36;108724;1272;24369;-78
2023/11/19 00:31:38;;;;;;;31.40;21.60;;;;;;;-0.05;100.00;97089.08;108733;1272;22536;-78
2023/11/19 00:34:10;;;;;;;33.00;23.00;;;;;;;-0.11;100.00;97089.09;108715;1269;23077;-78
2023/11/19 00:36:42;;;;;;;33.90;22.40;;;;;;;-0.13;100.00;97091.10;108793;1272;24281;-78
2023/11/19 00:39:15;;;;;;;32.90;22.40;;;;;;;-0.13;100.00;97088.73;108719;1270;24245;-78
2023/11/19 00:41:47;;;;;;;33.00;22.60;;;;;;;-0.10;100.00;97080.91;108694;1272;24306;-78
2023/11/19 00:44:20;;;;;;;36.50;24.70;;;;;;;-0.06;100.00;97076.85;108722;1272;22579;-78
2023/11/19 00:46:51;;;;;;;35.50;23.20;;;;;;;-0.03;100.00;97071.44;108752;1272;23501;-78
2023/11/19 00:49:23;;;;;;;37.90;24.90;;;;;;;0.00;100.00;97064.11;108705;1272;22524;-78
2023/11/19 00:51:55;;;;;;;38.40;24.50;;;;;;;0.01;100.00;97057.02;108688;1272;22521;-78
2023/11/19 00:54:27;;;;;;;34.50;22.80;;;;;;;0.03;100.00;97050.53;108649;1272;22619;-78
2023/11/19 00:57:02;;;;;;;34.00;21.80;;;;;;;-0.05;100.00;97044.70;108748;1270;22525;-78
2023/11/19 00:59:33;;;;;;;35.50;22.50;;;;;;;-0.11;100.00;97045.03;108725;1272;23017;-78
2023/11/19 01:02:06;;;;;;;38.60;23.90;;;;;;;-0.11;100.00;97045.95;108714;1272;22690;-78
2023/11/19 01:04:40;;;;;;;35.40;21.90;;;;;;;-0.10;100.00;97044.78;108682;1272;22541;-78
2023/11/19 01:07:13;;;;;;;36.70;22.30;;;;;;;-0.10;100.00;97042.83;108714;1270;22463;-78
2023/11/19 01:09:46;;;;;;;32.60;22.50;;;;;;;-0.15;100.00;97034.48;108640;1269;22529;-78
2023/11/19 01:12:17;;;;;;;36.00;23.30;;;;;;;-0.18;100.00;97023.08;108729;1272;22548;-78
2023/11/19 01:14:49;;;;;;;34.10;21.40;;;;;;;-0.17;100.00;97019.31;108755;1270;22529;-78
2023/11/19 01:17:20;;;;;;;39.60;23.40;;;;;;;-0.15;100.00;97021.55;108734;1272;22527;-78
2023/11/19 01:19:52;;;;;;;35.90;23.50;;;;;;;-0.11;100.00;97016.41;108701;1272;22543;-78
2023/11/19 01:22:23;;;;;;;36.30;22.60;;;;;;;-0.08;100.00;97015.55;108748;1272;22591;-78
2023/11/19 01:24:55;;;;;;;38.80;23.60;;;;;;;-0.05;100.00;97014.63;108738;1272;24201;-78
2023/11/19 01:27:26;;;;;;;35.90;22.60;;;;;;;-0.03;100.00;97015.95;108714;1264;22528;-78
2023/11/19 01:29:58;;;;;;;35.60;22.90;;;;;;;-0.02;100.00;97021.36;108660;1272;24363;-78
2023/11/19 01:32:31;;;;;;;35.60;22.50;;;;;;;-0.00;100.00;97017.20;108670;1272;25275;-78
2023/11/19 01:35:04;;;;;;;37.60;23.90;;;;;;;0.03;100.00;97019.86;108715;1270;25281;-78
2023/11/19 01:37:36;;;;;;;36.40;23.30;;;;;;;0.04;100.00;97024.51;108707;1272;22560;-78
2023/11/19 01:40:11;;;;;;;35.20;22.80;;;;;;;0.06;100.00;97025.17;108699;1269;22533;-78
2023/11/19 01:42:44;;;;;;;36.30;22.30;;;;;;;0.08;100.00;97021.73;108729;1272;22521;-78
2023/11/19 01:45:30;;;;;;;32.40;22.00;;;;;;;0.10;100.00;97011.05;108740;1272;22582;-78
2023/11/19 01:48:04;;;;;;;32.90;21.30;;;;;;;0.12;100.00;97005.95;108774;1272;22566;-78
2023/11/19 01:50:36;;;;;;;38.20;23.80;;;;;;;0.13;100.00;97006.10;108672;1272;22540;-78
2023/11/19 01:53:08;;;;;;;34.70;22.30;;;;;;;0.11;100.00;97001.81;108762;1272;22524;-78
2023/11/19 01:55:40;;;;;;;35.80;22.90;;;;;;;0.13;100.00;96998.44;108717;1272;22548;-78
2023/11/19 01:58:12;;;;;;;37.70;23.00;;;;;;;0.13;100.00;96991.91;108750;1269;22518;-78
2023/11/19 02:00:45;;;;;;;35.90;22.50;;;;;;;0.09;100.00;96993.30;108728;1261;24236;-78
2023/11/19 02:03:17;;;;;;;32.60;21.80;;;;;;;0.09;100.00;96988.28;108735;1269;22529;-78
2023/11/19 02:05:50;;;;;;;32.90;21.60;;;;;;;0.10;100.00;96983.66;108743;1270;22519;-78
2023/11/19 02:08:23;;;;;;;35.00;22.00;;;;;;;0.13;100.00;96986.50;108733;1272;22555;-78
2023/11/19 02:10:56;;;;;;;36.00;22.60;;;;;;;0.13;100.00;96977.44;108711;1272;23765;-77
2023/11/19 02:13:28;;;;;;;34.00;22.10;;;;;;;0.09;100.00;96980.58;108707;1272;22529;-78
2023/11/19 02:15:59;;;;;;;38.30;24.20;;;;;;;0.08;100.00;96972.52;108684;1272;22522;-78
2023/11/19 02:18:31;;;;;;;34.90;23.20;;;;;;;0.07;100.00;96958.97;108729;1272;23388;-78
2023/11/19 02:21:06;;;;;;;38.10;22.20;;;;;;;0.00;100.00;96958.10;108683;1272;22525;-78
2023/11/19 02:23:37;;;;;;;32.80;21.80;;;;;;;-0.07;100.00;96955.54;108710;1267;22543;-78
2023/11/19 02:26:19;;;;;;;33.20;21.80;;;;;;;-0.07;100.00;96959.18;108752;1272;25347;-78
2023/11/19 02:28:50;;;;;;;34.30;23.10;;;;;;;-0.04;100.00;96959.38;108725;1272;25239;-78
2023/11/19 02:31:22;;;;;;;35.30;23.00;;;;;;;-0.02;100.00;96950.39;108729;1272;22525;-78
2023/11/19 02:33:54;;;;;;;37.90;24.80;;;;;;;0.01;100.00;96943.60;108777;1272;22657;-78
2023/11/19 02:36:25;;;;;;;42.40;26.50;;;;;;;0.01;100.00;96934.61;108715;1269;25923;-78
2023/11/19 02:38:59;;;;;;;38.20;25.10;;;;;;;0.01;100.00;96925.59;108757;1272;22605;-78
2023/11/19 02:41:33;;;;;;;35.00;22.90;;;;;;;0.02;100.00;96913.27;108730;1270;22526;-78
2023/11/19 02:44:07;;;;;;;30.60;21.30;;;;;;;-0.05;100.00;96912.88;108733;1272;22611;-78
2023/11/19 02:46:38;;;;;;;34.40;22.20;;;;;;;-0.14;100.00;96907.73;108715;1272;22539;-78
2023/11/19 02:49:09;;;;;;;36.10;21.60;;;;;;;-0.23;100.00;96907.45;108780;1269;24209;-78
2023/11/19 02:51:40;;;;;;;34.50;21.00;;;;;;;-0.28;100.00;96900.29;108668;1272;25496;-78
2023/11/19 02:54:12;;;;;;;36.30;21.50;;;;;;;-0.31;100.00;96890.10;108723;1267;22530;-78
2023/11/19 02:56:47;;;;;;;34.40;23.10;;;;;;;-0.33;100.00;96882.81;108756;1267;22551;-78
2023/11/19 02:59:27;;;;;;;33.00;21.70;;;;;;;-0.33;100.00;96884.77;108731;1267;22547;-78
2023/11/19 03:01:59;;;;;;;36.80;23.20;;;;;;;-0.29;100.00;96885.65;108715;1272;22669;-78
2023/11/19 03:04:31;;;;;;;38.40;23.80;;;;;;;-0.23;100.00;96884.25;108749;1272;22538;-78
2023/11/19 03:07:02;;;;;;;40.30;24.20;;;;;;;-0.19;100.00;96874.65;108723;1267;23188;-78
2023/11/19 03:09:33;;;;;;;34.50;21.20;;;;;;;-0.14;100.00;96869.44;108712;1266;22521;-78
2023/11/19 03:12:06;;;;;;;36.90;23.20;;;;;;;-0.11;100.00;96864.19;108680;1272;24346;-78
2023/11/19 03:14:37;;;;;;;33.80;22.50;;;;;;;-0.09;100.00;96854.44;108752;1272;22539;-78
2023/11/19 03:17:09;;;;;;;37.60;22.90;;;;;;;-0.08;100.00;96849.98;108709;1266;22577;-78
2023/11/19 03:19:40;;;;;;;34.70;23.40;;;;;;;-0.06;100.00;96844.13;108784;1272;22558;-78
2023/11/19 03:22:11;;;;;;;40.80;24.10;;;;;;;-0.04;100.00;96838.73;108710;1272;22547;-78
2023/11/19 03:24:42;;;;;;;37.70;24.00;;;;;;;-0.02;100.00;96838.33;108723;1267;25172;-78
2023/11/19 03:27:16;;;;;;;35.20;22.90;;;;;;;-0.01;100.00;96828.79;108719;1272;22641;-78
2023/11/19 03:29:48;;;;;;;33.10;22.30;;;;;;;0.01;100.00;96830.95;108715;1272;23934;-78
2023/11/19 03:32:19;;;;;;;32.90;20.50;;;;;;;0.03;100.00;96832.40;108714;1272;22540;-78
2023/11/19 03:34:50;;;;;;;34.10;23.30;;;;;;;0.03;100.00;96831.00;108740;1272;22522;-78
2023/11/19 03:37:21;;;;;;;32.80;22.10;;;;;;;0.03;100.00;96833.76;108740;1272;22528;-78
2023/11/19 03:39:59;;;;;;;34.80;22.60;;;;;;;0.04;100.00;96832.71;108717;1272;22570;-78
2023/11/19 03:42:30;;;;;;;35.60;22.50;;;;;;;0.06;100.00;96828.25;108805;1262;25403;-78
2023/11/19 03:45:03;;;;;;;30.50;21.40;;;;;;;0.08;100.00;96819.34;108702;1272;22519;-78
2023/11/19 03:47:34;;;;;;;34.90;23.60;;;;;;;0.09;100.00;96814.16;108780;1270;25398;-78
2023/11/19 03:50:09;;;;;;;33.60;21.70;;;;;;;0.09;100.00;96803.98;108701;1267;54412;-78
2023/11/19 03:52:40;;;;;;;36.40;22.50;;;;;;;0.09;100.00;96803.97;108747;1272;22561;-78
2023/11/19 03:55:12;;;;;;;33.10;22.30;;;;;;;0.10;100.00;96801.52;108722;1267;23252;-78
2023/11/19 03:57:43;;;;;;;35.50;22.10;;;;;;;0.10;100.00;96801.04;108755;1272;22644;-78
2023/11/19 04:00:15;;;;;;;32.60;22.10;;;;;;;0.12;100.00;96799.66;108724;1272;25539;-78
2023/11/19 04:02:47;;;;;;;36.20;23.70;;;;;;;0.09;100.00;96790.14;108693;1272;22661;-78
2023/11/19 04:05:18;;;;;;;36.50;23.80;;;;;;;0.04;100.00;96776.94;108731;1272;22516;-78
2023/11/19 04:07:49;;;;;;;32.80;22.70;;;;;;;0.00;100.00;96779.99;108748;1272;22544;-78
2023/11/19 04:10:22;;;;;;;34.30;23.20;;;;;;;-0.02;100.00;96780.31;108737;1260;22659;-77
2023/11/19 04:12:53;;;;;;;30.80;20.90;;;;;;;-0.06;100.00;96771.44;108803;1272;22532;-77
2023/11/19 04:15:24;;;;;;;36.80;23.50;;;;;;;-0.11;100.00;96757.88;108775;1270;25332;-78
2023/11/19 04:17:55;;;;;;;32.50;20.30;;;;;;;-0.16;100.00;96754.80;108787;1272;22526;-78
2023/11/19 04:20:26;;;;;;;32.60;21.50;;;;;;;-0.21;100.00;96757.30;108697;1272;27202;-78
2023/11/19 04:22:57;;;;;;;26.40;16.30;;;;;;;-0.21;100.00;96758.14;108798;1266;22530;-78
2023/11/19 04:25:28;;;;;;;22.80;15.00;;;;;;;-0.23;100.00;96744.02;108714;1267;22529;-78
2023/11/19 04:27:59;;;;;;;23.40;15.50;;;;;;;-0.25;100.00;96733.45;108766;1272;22549;-78
2023/11/19 04:30:32;;;;;;;24.70;15.40;;;;;;;-0.26;100.00;96731.29;108731;1272;23252;-78
2023/11/19 04:33:03;;;;;;;17.50;11.90;;;;;;;-0.29;100.00;96729.44;108759;1254;25600;-78
2023/11/19 04:35:34;;;;;;;15.20;9.80;;;;;;;-0.31;100.00;96721.52;108735;1272;22547;-78
2023/11/19 04:38:05;;;;;;;16.80;11.10;;;;;;;-0.30;100.00;96717.26;108755;1272;22559;-78
2023/11/19 04:40:36;;;;;;;14.50;10.00;;;;;;;-0.32;100.00;96716.94;108691;1269;22529;-78
2023/11/19 04:43:08;;;;;;;12.70;8.60;;;;;;;-0.33;100.00;96722.84;108750;1272;22558;-78
2023/11/19 04:45:48;;;;;;;10.00;6.90;;;;;;;-0.33;100.00;96719.83;108724;1267;22524;-78
2023/11/19 04:48:19;;;;;;;12.60;9.10;;;;;;;-0.32;100.00;96714.70;108752;1266;22544;-78
2023/11/19 04:50:52;;;;;;;11.60;7.80;;;;;;;-0.33;100.00;96702.96;108706;1272;22529;-78
2023/11/19 04:53:23;;;;;;;10.00;6.80;;;;;;;-0.33;100.00;96691.86;108717;1272;22713;-78
2023/11/19 04:55:54;;;;;;;11.30;6.70;;;;;;;-0.34;100.00;96681.77;108738;1272;22587;-78
2023/11/19 04:58:25;;;;;;;10.60;7.30;;;;;;;-0.38;100.00;96674.14;108751;1267;22521;-78
2023/11/19 05:00:56;;;;;;;10.40;6.20;;;;;;;-0.39;100.00;96674.20;108733;1266;25249;-78
2023/11/19 05:03:27;;;;;;;9.80;6.60;;;;;;;-0.42;100.00;96672.97;108755;1270;23681;-78
2023/11/19 05:05:59;;;;;;;10.70;6.60;;;;;;;-0.43;100.00;96665.50;108761;1272;22624;-78
2023/11/19 05:08:32;;;;;;;10.60;7.00;;;;;;;-0.44;100.00;96666.46;108732;1272;22515;-78
2023/11/19 05:11:07;;;;;;;10.40;6.90;;;;;;;-0.43;100.00;96667.55;108744;1272;22492;-78
2023/11/19 05:13:38;;;;;;;8.70;6.20;;;;;;;-0.41;100.00;96673.52;108749;1272;22531;-78
2023/11/19 05:16:09;;;;;;;11.00;6.30;;;;;;;-0.40;100.00;96680.10;108746;1272;25255;-78
2023/11/19 05:18:40;;;;;;;9.20;6.10;;;;;;;-0.40;100.00;96683.49;108700;1272;22532;-78
2023/11/19 05:21:11;;;;;;;8.50;5.60;;;;;;;-0.38;100.00;96693.98;108776;1272;22535;-78
2023/11/19 05:23:43;;;;;;;12.60;7.90;;;;;;;-0.38;100.00;96698.46;108760;1272;24244;-78
2023/11/19 05:26:22;;;;;;;11.60;8.40;;;;;;;-0.38;100.00;96694.73;108769;1272;22541;-78
2023/11/19 05:28:53;;;;;;;12.20;7.60;;;;;;;-0.40;100.00;96677.04;108760;1272;22564;-78
2023/11/19 05:31:24;;;;;;;12.00;7.70;;;;;;;-0.40;100.00;96670.75;108740;1272;22638;-78
2023/11/19 05:33:55;;;;;;;11.10;7.40;;;;;;;-0.40;100.00;96667.91;108744;1272;22511;-78
2023/11/19 05:36:28;;;;;;;10.50;7.20;;;;;;;-0.42;100.00;96664.35;108719;1266;22619;-78
2023/11/19 05:39:00;;;;;;;11.40;8.20;;;;;;;-0.44;100.00;96670.88;108775;1272;22524;-78
2023/11/19 05:41:31;;;;;;;15.50;10.30;;;;;;;-0.43;99.97;96672.52;108728;1266;22524;-78
2023/11/19 05:44:03;;;;;;;16.50;11.60;;;;;;;-0.41;100.00;96663.71;108767;1272;22546;-78
2023/11/19 05:46:40;;;;;;;12.20;7.80;;;;;;;-0.41;99.99;96657.95;108698;1272;22603;-78
2023/11/19 05:49:11;;;;;;;9.70;6.50;;;;;;;-0.43;99.97;96662.39;108723;1272;22543;-78
2023/11/19 05:51:43;;;;;;;8.70;5.80;;;;;;;-0.46;99.87;96665.19;108715;1262;24260;-78
2023/11/19 05:54:16;;;;;;;9.20;6.00;;;;;;;-0.47;99.86;96664.73;108719;1272;22557;-78
2023/11/19 05:56:53;;;;;;;9.30;6.10;;;;;;;-0.48;99.99;96662.48;108761;1266;22528;-78
2023/11/19 05:59:25;;;;;;;12.40;6.20;;;;;;;-0.46;99.64;96664.35;108800;1272;22555;-78
2023/11/19 06:01:56;;;;;;;8.80;6.60;;;;;;;-0.46;99.62;96664.30;108724;1272;22533;-78
2023/11/19 06:04:27;;;;;;;10.30;6.60;;;;;;;-0.44;99.38;96655.81;108694;1269;22543;-78
2023/11/19 06:06:59;;;;;;;8.90;5.60;;;;;;;-0.45;99.64;96642.79;108766;1272;22725;-78
2023/11/19 06:09:33;;;;;;;8.60;6.00;;;;;;;-0.45;99.73;96629.45;108761;1272;23029;-78
2023/11/19 06:12:06;;;;;;;7.60;5.40;;;;;;;-0.41;99.76;96629.70;108740;1272;22544;-78
2023/11/19 06:14:37;;;;;;;11.30;6.90;;;;;;;-0.39;99.40;96632.08;108785;1272;25433;-78
2023/11/19 06:17:10;;;;;;;11.90;7.00;;;;;;;-0.38;99.31;96629.95;108777;1267;24211;-78
2023/11/19 06:19:41;;;;;;;11.90;7.20;;;;;;;-0.37;99.00;96626.93;108729;1272;22531;-78
2023/11/19 06:22:12;;;;;;;11.40;7.40;;;;;;;-0.35;99.25;96626.00;108748;1272;22540;-78
2023/11/19 06:24:44;;;;;;;10.60;7.30;;;;;;;-0.31;99.21;96622.69;108739;1266;22525;-78
2023/11/19 06:27:15;;;;;;;9.20;6.40;;;;;;;-0.25;99.20;96629.05;108770;1272;22526;-78
2023/11/19 06:29:46;;;;;;;10.00;7.30;;;;;;;-0.22;98.88;96633.15;108721;1272;22528;-78
2023/11/19 06:32:17;;;;;;;10.10;6.30;;;;;;;-0.22;98.65;96634.83;108706;1269;25462;-78
2023/11/19 06:34:48;;;;;;;9.20;6.30;;;;;;;-0.24;98.61;96638.05;108707;1272;23119;-78
2023/11/19 06:37:19;;;;;;;9.00;6.20;;;;;;;-0.25;98.33;96640.02;108755;1272;22511;-78
2023/11/19 06:39:51;;;;;;;8.80;6.20;;;;;;;-0.24;98.34;96639.85;108769;1272;23035;-78
2023/11/19 06:42:24;;;;;;;11.20;7.50;;;;;;;-0.20;98.26;96651.05;108736;1272;22533;-78
2023/11/19 06:44:57;;;;;;;9.80;7.10;;;;;;;-0.12;98.41;96653.09;108721;1266;22537;-78
2023/11/19 06:47:29;;;;;;;12.00;8.10;;;;;;;-0.06;98.28;96644.08;108761;1272;22751;-78
2023/11/19 06:50:00;;;;;;;11.00;7.10;;;;;;;-0.06;98.18;96637.86;108722;1272;22518;-78
2023/11/19 06:52:32;;;;;;;11.40;8.30;;;;;;;-0.08;98.28;96640.72;108756;1272;22528;-78
2023/11/19 06:55:06;;;;;;;11.60;7.80;;;;;;;-0.09;98.34;96644.38;108754;1267;22537;-78
2023/11/19 06:57:38;;;;;;;11.20;7.20;;;;;;;-0.07;98.05;96631.25;108744;1272;24391;-78
2023/11/19 07:00:11;;;;;;;10.40;7.40;;;;;;;-0.06;98.10;96608.31;108645;1269;24740;-78
2023/11/19 07:02:44;;;;;;;10.40;6.60;;;;;;;-0.01;98.04;96608.11;108809;1266;22516;-78
2023/11/19 07:05:17;;;;;;;11.50;7.80;;;;;;;0.10;98.31;96609.09;108774;1266;22550;-77
2023/11/19 07:07:49;;;;;;;10.30;6.60;;;;;;;0.25;98.28;96603.91;108722;1272;22530;-78
2023/11/19 07:10:20;;;;;;;10.60;7.50;;;;;;;0.33;98.07;96601.38;108699;1266;22528;-77
2023/11/19 07:12:51;;;;;;;9.60;6.70;;;;;;;0.46;98.11;96595.61;108768;1272;22541;-78
2023/11/19 07:15:22;;;;;;;10.30;7.10;;;;;;;0.56;98.00;96588.08;108754;1265;23107;-77
2023/11/19 07:17:54;;;;;;;11.20;7.70;;;;;;;0.63;97.92;96567.95;108758;1266;22521;-77
2023/11/19 07:20:26;;;;;;;10.30;7.10;;;;;;;0.64;97.38;96564.70;108739;1272;23640;-77
2023/11/19 07:22:58;;;;;;;11.10;7.50;;;;;;;0.66;97.36;96564.17;108722;1271;25392;-78
2023/11/19 07:25:29;;;;;;;10.60;7.40;;;;;;;0.66;96.91;96554.42;108737;1265;22520;-78
2023/11/19 07:28:00;;;;;;;9.00;6.40;;;;;;;0.60;96.99;96550.29;108731;1267;22526;-77
2023/11/19 07:30:32;;;;;;;10.60;7.20;;;;;;;0.61;97.06;96545.82;108757;1272;22796;-77
2023/11/19 07:33:04;;;;;;;10.60;7.30;;;;;;;0.66;96.99;96553.67;108726;1272;24314;-77
2023/11/19 07:35:35;;;;;;;9.80;7.00;;;;;;;0.70;97.10;96541.73;108757;1266;24349;-77
2023/11/19 07:38:07;;;;;;;9.80;7.20;;;;;;;0.74;97.20;96539.47;108769;1266;22531;-77
2023/11/19 07:40:38;;;;;;;9.50;6.70;;;;;;;0.77;97.12;96539.14;108745;1272;22540;-78
2023/11/19 07:43:09;;;;;;;10.10;6.80;;;;;;;0.80;97.14;96540.91;108758;1272;22564;-77
2023/11/19 07:45:44;;;;;;;10.60;7.00;;;;;;;0.80;96.61;96543.56;108763;1272;22535;-77
2023/11/19 07:48:16;;;;;;;9.30;6.20;;;;;;;0.78;96.44;96551.05;108784;1266;23214;-78
2023/11/19 07:50:47;;;;;;;9.90;6.40;;;;;;;0.64;96.06;96552.48;108749;1272;22560;-78
2023/11/19 07:53:18;;;;;;;10.20;5.80;;;;;;;0.57;96.07;96552.93;108789;1266;22651;-77
2023/11/19 07:55:49;;;;;;;9.30;7.00;;;;;;;0.57;96.08;96556.98;108750;1272;22562;-78
2023/11/19 07:58:22;;;;;;;10.80;7.00;;;;;;;0.70;96.34;96559.49;108781;1272;22535;-78
2023/11/19 08:00:53;;;;;;;11.10;7.40;;;;;;;0.78;96.16;96558.52;108723;1272;22538;-78
2023/11/19 08:03:25;;;;;;;11.80;8.20;;;;;;;0.84;95.96;96552.23;108770;1272;22584;-78
2023/11/19 08:05:58;;;;;;;10.80;8.30;;;;;;;0.86;95.94;96558.04;108728;1272;22527;-77
2023/11/19 08:08:30;;;;;;;9.80;7.30;;;;;;;0.97;96.05;96555.58;108757;1272;25418;-77
2023/11/19 08:11:01;;;;;;;10.80;7.90;;;;;;;1.06;96.08;96555.99;108767;1272;22537;-78
2023/11/19 08:13:32;;;;;;;11.50;7.30;;;;;;;1.14;95.96;96557.31;108718;1269;22527;-77
2023/11/19 08:16:03;;;;;;;11.30;7.90;;;;;;;1.26;96.05;96560.70;108721;1268;24450;-78
2023/11/19 08:18:35;;;;;;;11.20;7.80;;;;;;;1.38;95.90;96549.53;108739;1272;22540;-78
2023/11/19 08:21:06;;;;;;;10.40;6.60;;;;;;;1.51;95.71;96537.02;108691;1272;22536;-78
2023/11/19 08:23:38;;;;;;;11.10;7.40;;;;;;;1.46;95.25;96530.15;108740;1266;24199;-78
2023/11/19 08:26:10;;;;;;;11.60;6.50;;;;;;;1.38;94.94;96526.90;108737;1272;22520;-78
2023/11/19 08:28:41;;;;;;;9.70;6.40;;;;;;;1.35;94.74;96529.29;108735;1272;24232;-77
2023/11/19 08:31:13;;;;;;;11.30;7.00;;;;;;;1.34;94.62;96519.70;108735;1272;24272;-78
2023/11/19 08:33:44;;;;;;;11.80;7.90;;;;;;;1.32;94.32;96512.34;108774;1272;22643;-78
2023/11/19 08:36:19;;;;;;;10.70;6.00;;;;;;;1.26;94.09;96515.73;108710;1272;22514;-78
2023/11/19 08:38:51;;;;;;;12.90;8.10;;;;;;;1.17;93.71;96508.83;108782;1272;22529;-78
2023/11/19 08:41:23;;;;;;;13.90;8.20;;;;;;;1.20;94.06;96495.70;108754;1272;22663;-78
2023/11/19 08:43:54;;;;;;;11.60;7.00;;;;;;;1.27;93.85;96487.05;108734;1272;22521;-78
2023/11/19 08:46:26;;;;;;;10.60;6.70;;;;;;;1.27;93.78;96483.02;108733;1272;22521;-78
2023/11/19 08:49:00;;;;;;;13.30;8.20;;;;;;;1.29;93.60;96484.06;108736;1269;22517;-78
2023/11/19 08:51:31;;;;;;;10.90;7.70;;;;;;;1.26;93.67;96488.21;108720;1272;22683;-78
2023/11/19 08:54:03;;;;;;;10.90;6.80;;;;;;;1.25;93.54;96495.21;108760;1272;22518;-78
2023/11/19 08:56:35;;;;;;;9.60;5.80;;;;;;;1.21;93.41;96489.86;108763;1266;22509;-78
2023/11/19 08:59:06;;;;;;;11.30;7.40;;;;;;;1.11;92.97;96484.39;108744;1265;22522;-78
2023/11/19 09:01:37;;;;;;;11.70;6.20;;;;;;;1.06;93.28;96476.00;108719;1272;22544;-78
2023/11/19 09:04:08;;;;;;;12.10;8.00;;;;;;;1.01;93.19;96478.07;108724;1272;23850;-78
2023/11/19 09:06:40;;;;;;;12.60;8.00;;;;;;;0.96;92.85;96473.99;108736;1272;22514;-78
2023/11/19 09:09:11;;;;;;;10.90;7.20;;;;;;;0.92;92.88;96472.09;108696;1266;22579;-78
2023/11/19 09:11:42;;;;;;;13.10;8.20;;;;;;;0.90;92.58;96476.41;108761;1266;22530;-78
2023/11/19 09:14:13;;;;;;;11.90;7.70;;;;;;;0.96;92.91;96478.06;108706;1266;22521;-78
2023/11/19 09:16:47;;;;;;;8.10;4.70;;;;;;;1.01;92.52;96469.66;108739;1266;22542;-78
2023/11/19 09:19:18;;;;;;;9.40;5.90;;;;;;;1.00;92.06;96464.11;108765;1272;22634;-78
2023/11/19 09:21:50;;;;;;;12.10;7.90;;;;;;;1.08;92.31;96464.45;108624;1266;147083;-78
2023/11/19 09:24:21;;;;;;;11.80;7.50;;;;;;;1.12;92.32;96461.55;108757;1272;22680;-79
2023/11/19 09:26:54;;;;;;;9.20;6.30;;;;;;;1.12;92.18;96460.09;108747;1266;22527;-78
2023/11/19 09:29:25;;;;;;;11.50;7.20;;;;;;;1.11;92.03;96457.73;108758;1270;22527;-78
2023/11/19 09:31:56;;;;;;;10.60;6.30;;;;;;;1.08;92.03;96454.84;108722;1265;22517;-78
2023/11/19 09:34:27;;;;;;;10.90;5.30;;;;;;;1.08;91.76;96446.29;108746;1272;22534;-79
2023/11/19 09:36:58;;;;;;;12.10;8.00;;;;;;;1.06;91.82;96441.70;108731;1272;22521;-79
2023/11/19 09:39:30;;;;;;;8.60;4.80;;;;;;;1.06;91.81;96434.13;108775;1272;23846;-79
2023/11/19 09:42:03;;;;;;;12.80;8.00;;;;;;;1.06;91.94;96433.19;108763;1272;22617;-79
2023/11/19 09:44:35;;;;;;;13.10;8.60;;;;;;;1.09;92.13;96425.64;108761;1272;22563;-79
2023/11/19 09:47:07;;;;;;;11.80;7.60;;;;;;;1.12;92.09;96421.21;108741;1269;22521;-79
2023/11/19 09:49:39;;;;;;;12.20;8.30;;;;;;;1.17;92.36;96410.62;108740;1266;22694;-79
2023/11/19 09:52:11;;;;;;;12.40;8.80;;;;;;;1.23;92.51;96403.42;108762;1265;24188;-79
2023/11/19 09:54:43;;;;;;;14.30;9.70;;;;;;;1.32;92.78;96401.41;108746;1272;22554;-79
2023/11/19 09:57:17;;;;;;;12.60;8.00;;;;;;;1.34;92.51;96400.25;108836;1272;24150;-79
2023/11/19 09:59:49;;;;;;;11.40;8.50;;;;;;;1.34;92.46;96401.86;108689;1266;22516;-77
2023/11/19 10:02:21;;;;;;;13.10;7.70;;;;;;;1.34;92.29;96397.23;108773;1272;22532;-79
2023/11/19 10:04:54;;;;;;;10.70;7.10;;;;;;;1.39;92.29;96387.30;108722;1266;22550;-79
2023/11/19 10:07:26;;;;;;;11.80;8.00;;;;;;;1.41;92.29;96377.40;108721;1272;23191;-79
2023/11/19 10:09:57;;;;;;;7.60;4.90;;;;;;;1.46;92.09;96366.73;108743;1269;23304;-78
2023/11/19 10:12:28;;;;;;;10.70;5.40;;;;;;;1.47;91.68;96359.73;108719;1272;22737;-79
2023/11/19 10:15:00;;;;;;;11.40;6.50;;;;;;;1.46;91.28;96362.52;108800;1272;26526;-79
2023/11/19 10:17:36;;;;;;;11.60;8.10;;;;;;;1.49;91.53;96361.17;108711;1266;24202;-79
2023/11/19 10:20:10;;;;;;;10.80;6.60;;;;;;;1.53;91.61;96357.54;108751;1266;28608;-79
2023/11/19 10:22:42;;;;;;;11.60;6.80;;;;;;;1.54;91.41;96358.61;108796;1272;25424;-79
2023/11/19 10:25:25;;;;;;;10.90;7.50;;;;;;;1.56;91.53;96358.63;108794;1270;22510;-79
2023/11/19 10:27:57;;;;;;;10.70;7.10;;;;;;;1.65;91.74;96352.43;108696;1265;25392;-79
2023/11/19 10:30:30;;;;;;;9.40;6.20;;;;;;;1.75;91.75;96350.94;108733;1272;23145;-79
2023/11/19 10:33:09;;;;;;;8.90;6.20;;;;;;;1.85;91.87;96343.98;108748;1272;24273;-79
2023/11/19 10:35:54;;;;;;;7.20;5.20;;;;;;;1.94;91.31;96332.20;108760;1272;22545;-79
2023/11/19 10:38:26;;;;;;;9.10;6.60;;;;;;;2.04;90.62;96334.96;108690;1265;26572;-80
2023/11/19 10:40:57;;;;;;;7.50;5.10;;;;;;;2.14;90.75;96333.86;108713;1272;25287;-79
2023/11/19 10:43:29;;;;;;;7.70;4.10;;;;;;;2.25;90.79;96322.59;108752;1272;23395;-80
2023/11/19 10:46:12;;;;;;;8.40;5.00;;;;;;;2.30;90.25;96329.16;108734;1272;25548;-79
2023/11/19 10:48:43;;;;;;;7.50;5.20;;;;;;;2.31;89.86;96318.14;108798;1272;22599;-79
2023/11/19 10:51:21;;;;;;;10.70;7.20;;;;;;;2.34;89.79;96311.34;108732;1266;25387;-80
2023/11/19 10:53:56;;;;;;;10.30;5.90;;;;;;;2.34;89.34;96305.48;108737;1266;22531;-79
2023/11/19 10:56:31;;;;;;;11.50;7.60;;;;;;;2.30;89.06;96294.68;108742;1272;22574;-79
2023/11/19 10:59:05;;;;;;;10.90;6.80;;;;;;;2.32;89.10;96280.55;108805;1272;23332;-82
2023/11/19 11:01:41;;;;;;;10.50;7.10;;;;;;;2.39;89.48;96271.79;108759;1272;22531;-80
2023/11/19 11:04:20;;;;;;;10.80;7.50;;;;;;;2.50;89.52;96269.39;108762;1266;24456;-80
2023/11/19 11:06:51;;;;;;;10.90;7.40;;;;;;;2.55;89.52;96252.13;108752;1272;22593;-80
2023/11/19 11:09:24;;;;;;;9.10;6.50;;;;;;;2.55;89.06;96253.48;108765;1266;22524;-79
2023/11/19 11:11:55;;;;;;;8.20;5.50;;;;;;;2.47;88.36;96244.18;108749;1272;25511;-79
2023/11/19 11:14:28;;;;;;;9.70;6.00;;;;;;;2.35;88.09;96237.27;108720;1266;22535;-80
2023/11/19 11:16:59;;;;;;;6.90;5.00;;;;;;;2.28;87.99;96234.87;108697;1272;22599;-79
2023/11/19 11:19:30;;;;;;;7.40;5.50;;;;;;;2.21;87.95;96220.34;108781;1272;22525;-79
2023/11/19 11:22:04;;;;;;;6.30;4.50;;;;;;;2.16;87.91;96215.96;108702;1272;22534;-79
2023/11/19 11:24:57;;;;;;;9.50;4.90;;;;;;;2.14;87.50;96196.79;108766;1272;22523;-79
2023/11/19 11:27:49;;;;;;;7.50;4.60;;;;;;;2.14;87.42;96188.90;108761;1269;23368;-82
2023/11/19 11:30:43;;;;;;;6.30;4.70;;;;;;;2.16;87.37;96184.59;108736;1272;22687;-79
2023/11/19 11:33:34;;;;;;;8.00;4.50;;;;;;;2.17;87.00;96180.38;108728;1272;22532;-79
2023/11/19 11:36:17;;;;;;;11.30;4.70;;;;;;;2.13;85.74;96186.95;108851;1272;25955;-79
2023/11/19 11:38:52;;;;;;;8.00;5.10;;;;;;;2.08;85.46;96191.86;108711;1272;22550;-79
2023/11/19 11:41:25;;;;;;;7.60;5.00;;;;;;;2.05;85.45;96186.17;108713;1272;23395;-81